Time;durP1;ratioP1;P1;durP2;ratioP2;P2;SDS_P1;SDS_P2;PMS_P1;PMS_P2;Temp;Humidity;BMP_temperature;BMP_pressure;BME280_temperature;BME280_humidity;BME280_pressure;Samples;Min_cycle;Max_cycle;Signal;HPM_P1;HPM_P2
2022/11/08 00:01:38;;;;;;;5.55;4.45;;;3.30;99.90;;;;;;5073265;28;20056;-53
2022/11/08 00:04:06;;;;;;;7.57;4.97;;;3.20;99.90;;;;;;5073808;28;20021;-50
2022/11/08 00:14:46;;;;;;;10.35;5.13;;;3.20;99.90;;;;;;5073022;28;20153;-50
2022/11/08 00:17:14;;;;;;;8.80;5.57;;;3.20;99.90;;;;;;5072686;28;20046;-51
2022/11/08 00:19:41;;;;;;;6.60;5.00;;;3.20;99.90;;;;;;5072226;28;20032;-50
2022/11/08 00:22:07;;;;;;;6.18;4.82;;;3.10;99.90;;;;;;5072827;28;20048;-51
2022/11/08 00:24:33;;;;;;;8.02;4.45;;;3.10;99.90;;;;;;5072355;28;20060;-53
2022/11/08 00:27:00;;;;;;;7.65;4.38;;;3.10;99.90;;;;;;5072399;28;20054;-51
2022/11/08 00:29:25;;;;;;;9.73;4.97;;;3.10;99.90;;;;;;5072554;28;20021;-51
2022/11/08 00:31:51;;;;;;;8.38;5.05;;;3.00;99.90;;;;;;5072801;28;20040;-50
2022/11/08 00:34:17;;;;;;;7.40;6.07;;;3.00;99.90;;;;;;5073005;28;20031;-50
2022/11/08 00:36:42;;;;;;;6.95;5.05;;;3.00;99.90;;;;;;5071390;28;20031;-50
2022/11/08 00:39:09;;;;;;;7.25;5.38;;;3.00;99.90;;;;;;5071408;28;20491;-50
2022/11/08 00:41:35;;;;;;;6.72;5.30;;;3.00;99.90;;;;;;5072829;28;20053;-50
2022/11/08 00:44:01;;;;;;;5.15;4.65;;;3.00;99.90;;;;;;5073074;28;20029;-50
2022/11/08 00:46:26;;;;;;;7.95;4.75;;;2.90;99.90;;;;;;5071509;28;20023;-50
2022/11/08 00:48:52;;;;;;;5.32;4.82;;;2.90;99.90;;;;;;5072845;28;20027;-51
2022/11/08 00:51:18;;;;;;;5.57;4.88;;;2.90;99.90;;;;;;5072792;28;20386;-49
2022/11/08 00:53:43;;;;;;;11.98;7.07;;;2.90;99.90;;;;;;5072720;28;20115;-50
2022/11/08 00:56:11;;;;;;;8.05;5.78;;;2.80;99.90;;;;;;5072566;28;20554;-49
2022/11/08 00:58:37;;;;;;;9.07;5.22;;;2.90;99.90;;;;;;5072656;28;20471;-49
2022/11/08 01:01:15;;;;;;;7.63;5.20;;;2.80;99.90;;;;;;5071435;28;20028;-50
2022/11/08 01:03:41;;;;;;;8.52;5.18;;;2.80;99.90;;;;;;5072391;28;20017;-50
2022/11/08 01:06:08;;;;;;;10.70;6.05;;;2.80;99.90;;;;;;5072555;28;20470;-51
2022/11/08 01:08:33;;;;;;;9.88;6.72;;;2.80;99.90;;;;;;5072081;28;20042;-49
2022/11/08 01:11:06;;;;;;;13.27;5.50;;;2.90;99.90;;;;;;5072428;28;20543;-49
2022/11/08 01:13:32;;;;;;;8.52;6.55;;;2.80;99.90;;;;;;5071425;28;20376;-51
2022/11/08 01:16:04;;;;;;;7.18;6.03;;;2.80;99.90;;;;;;5072397;28;20021;-50
2022/11/08 01:18:29;;;;;;;6.72;5.28;;;2.90;99.90;;;;;;5072144;28;20025;-50
2022/11/08 01:20:55;;;;;;;9.95;7.25;;;2.90;99.90;;;;;;5072311;28;20086;-50
2022/11/08 01:23:21;;;;;;;11.77;6.35;;;2.90;99.90;;;;;;5072036;28;20020;-51
2022/11/08 01:25:47;;;;;;;8.32;5.65;;;2.90;99.90;;;;;;5072372;28;20059;-50
2022/11/08 01:28:13;;;;;;;6.28;5.47;;;2.90;99.90;;;;;;5072371;28;20414;-51
2022/11/08 01:30:41;;;;;;;6.10;5.00;;;2.90;99.90;;;;;;5072047;28;20035;-49
2022/11/08 01:33:07;;;;;;;6.97;5.10;;;2.80;99.90;;;;;;5071988;28;20471;-50
2022/11/08 01:35:35;;;;;;;9.80;5.90;;;2.80;99.90;;;;;;5071973;28;20024;-50
2022/11/08 01:38:01;;;;;;;9.13;5.43;;;2.80;99.90;;;;;;5071726;28;20614;-51
2022/11/08 01:40:27;;;;;;;6.70;5.53;;;2.80;99.90;;;;;;5071677;28;20117;-49
2022/11/08 01:42:53;;;;;;;10.60;5.60;;;2.70;99.90;;;;;;5071966;28;20029;-50
2022/11/08 01:45:56;;;;;;;8.60;5.35;;;2.80;99.90;;;;;;5072032;28;20082;-49
2022/11/08 01:48:24;;;;;;;8.32;6.30;;;2.70;99.90;;;;;;5071683;28;20028;-49
2022/11/08 01:50:51;;;;;;;6.63;5.07;;;2.70;99.90;;;;;;5071852;28;20033;-50
2022/11/08 01:53:18;;;;;;;5.05;4.55;;;2.70;99.90;;;;;;5071811;28;20028;-50
2022/11/08 01:55:45;;;;;;;6.70;5.20;;;2.70;99.90;;;;;;5071520;28;20020;-52
2022/11/08 01:58:16;;;;;;;5.88;5.00;;;2.70;99.90;;;;;;5071752;28;20066;-49
2022/11/08 02:00:42;;;;;;;5.95;4.68;;;2.70;99.90;;;;;;5071332;28;20046;-51
2022/11/08 02:03:11;;;;;;;5.93;4.97;;;2.70;99.90;;;;;;5071911;28;20531;-50
2022/11/08 02:05:38;;;;;;;14.23;5.18;;;2.70;99.90;;;;;;5071539;28;20020;-50
2022/11/08 02:08:13;;;;;;;7.18;4.60;;;2.70;99.90;;;;;;5071352;28;20460;-52
2022/11/08 02:10:44;;;;;;;10.10;5.28;;;2.70;99.90;;;;;;5071451;28;20055;-49
2022/11/08 02:13:14;;;;;;;10.20;5.38;;;2.70;99.90;;;;;;5071546;28;20024;-50
2022/11/08 02:15:40;;;;;;;5.90;5.28;;;2.60;99.90;;;;;;5071386;28;20031;-50
2022/11/08 02:18:06;;;;;;;9.05;5.78;;;2.60;99.90;;;;;;5071630;28;20017;-51
2022/11/08 02:20:33;;;;;;;6.72;4.82;;;2.60;99.90;;;;;;5071347;28;20060;-51
2022/11/08 02:23:26;;;;;;;6.85;5.25;;;2.60;99.90;;;;;;5071552;28;20459;-49
2022/11/08 02:25:52;;;;;;;12.65;5.55;;;2.50;99.90;;;;;;5074007;28;20016;-49
2022/11/08 02:28:18;;;;;;;5.30;4.80;;;2.50;99.90;;;;;;5075662;28;20059;-52
2022/11/08 02:30:43;;;;;;;6.07;5.13;;;2.50;99.90;;;;;;5075416;28;20480;-49
2022/11/08 02:33:27;;;;;;;6.55;4.28;;;2.40;99.90;;;;;;5075523;28;20460;-50
2022/11/08 02:35:55;;;;;;;6.03;4.63;;;2.40;99.90;;;;;;5075551;28;20108;-51
2022/11/08 02:38:22;;;;;;;6.20;4.93;;;2.40;99.90;;;;;;5075174;28;20029;-50
2022/11/08 02:40:54;;;;;;;4.55;4.13;;;2.40;99.90;;;;;;5075453;28;20025;-50
2022/11/08 02:43:21;;;;;;;7.22;4.50;;;2.40;99.90;;;;;;5075315;28;20055;-52
2022/11/08 02:45:47;;;;;;;7.78;5.03;;;2.30;99.90;;;;;;5075141;28;20408;-55
2022/11/08 02:48:13;;;;;;;9.80;4.78;;;2.30;99.90;;;;;;5075285;28;20027;-50
2022/11/08 02:50:39;;;;;;;6.55;4.43;;;2.30;99.90;;;;;;5074944;28;20032;-52
2022/11/08 02:53:05;;;;;;;6.90;4.38;;;2.30;99.90;;;;;;5075122;28;20051;-52
2022/11/08 02:55:32;;;;;;;7.38;4.82;;;2.30;99.90;;;;;;5074962;28;20079;-51
2022/11/08 02:57:58;;;;;;;6.75;3.95;;;2.30;99.90;;;;;;5075060;28;20081;-54
2022/11/08 03:00:23;;;;;;;9.43;5.88;;;2.20;99.90;;;;;;5074722;28;20024;-51
2022/11/08 03:02:56;;;;;;;6.50;4.38;;;2.20;99.90;;;;;;5074998;28;20066;-50
2022/11/08 03:05:24;;;;;;;6.55;5.50;;;2.20;99.90;;;;;;5074696;28;20001;-51
2022/11/08 03:07:50;;;;;;;9.32;4.43;;;2.20;99.90;;;;;;5074653;28;20044;-52
2022/11/08 03:10:16;;;;;;;5.13;4.15;;;2.20;99.90;;;;;;5074730;28;20113;-52
2022/11/08 03:12:42;;;;;;;5.88;4.70;;;2.20;99.90;;;;;;5073224;28;20039;-50
2022/11/08 03:15:09;;;;;;;5.43;4.93;;;2.30;99.90;;;;;;5073320;28;20549;-50
2022/11/08 03:17:35;;;;;;;8.98;4.57;;;2.20;99.90;;;;;;5074520;28;20028;-51
2022/11/08 03:20:01;;;;;;;4.05;3.70;;;2.20;99.90;;;;;;5074506;28;20645;-50
2022/11/08 03:22:27;;;;;;;5.95;4.55;;;2.20;99.90;;;;;;5074524;28;20023;-52
2022/11/08 03:24:52;;;;;;;8.25;4.20;;;2.10;99.90;;;;;;5074793;28;20036;-51
2022/11/08 03:27:18;;;;;;;5.03;4.13;;;2.10;99.90;;;;;;5074427;28;20028;-53
2022/11/08 03:29:45;;;;;;;12.88;4.97;;;2.10;99.90;;;;;;5074217;28;20428;-51
2022/11/08 03:32:11;;;;;;;7.05;4.53;;;2.10;99.90;;;;;;5074347;28;20031;-50
2022/11/08 03:34:37;;;;;;;4.55;4.03;;;2.10;99.90;;;;;;5073933;28;20468;-50
2022/11/08 03:37:07;;;;;;;8.57;4.70;;;2.10;99.90;;;;;;5073182;28;20031;-52
2022/11/08 03:39:33;;;;;;;7.93;5.25;;;2.10;99.90;;;;;;5074028;28;20028;-50
2022/11/08 03:42:01;;;;;;;3.97;3.60;;;2.10;99.90;;;;;;5074208;28;20047;-50
2022/11/08 03:44:28;;;;;;;8.63;4.53;;;2.10;99.90;;;;;;5073900;28;20028;-52
2022/11/08 03:46:53;;;;;;;8.15;4.55;;;2.00;99.90;;;;;;5074098;28;20460;-53
2022/11/08 03:49:19;;;;;;;4.45;3.92;;;2.00;99.90;;;;;;5074076;28;20123;-50
2022/11/08 03:51:45;;;;;;;7.38;4.20;;;2.00;99.90;;;;;;5074125;28;20116;-50
2022/11/08 03:54:11;;;;;;;10.15;4.43;;;2.00;99.90;;;;;;5073987;28;20089;-52
2022/11/08 03:56:36;;;;;;;9.18;4.90;;;2.00;99.90;;;;;;5073884;28;20025;-50
2022/11/08 03:59:02;;;;;;;6.13;4.60;;;1.90;99.90;;;;;;5073851;28;20495;-53
2022/11/08 04:01:28;;;;;;;6.80;4.10;;;1.90;99.90;;;;;;5073675;28;20494;-54
2022/11/08 04:03:53;;;;;;;4.72;4.20;;;1.90;99.90;;;;;;5073893;28;20032;-49
2022/11/08 04:06:19;;;;;;;6.35;3.85;;;1.90;99.90;;;;;;5073762;28;20483;-52
2022/11/08 04:08:45;;;;;;;6.60;3.50;;;1.90;99.90;;;;;;5073321;28;20054;-49
2022/11/08 04:16:39;;;;;;;5.25;3.78;;;2.00;99.90;;;;;;5073700;28;20458;-51
2022/11/08 04:21:51;;;;;;;4.90;3.72;;;1.90;99.90;;;;;;5073543;28;20153;-50
2022/11/08 04:24:17;;;;;;;4.15;3.75;;;1.90;99.90;;;;;;5073398;28;20024;-50
2022/11/08 04:26:43;;;;;;;6.32;4.60;;;1.90;99.90;;;;;;5073130;28;20423;-51
2022/11/08 04:29:09;;;;;;;6.65;4.13;;;1.90;99.90;;;;;;5073348;28;20064;-49
2022/11/08 04:31:35;;;;;;;8.30;5.35;;;1.90;99.90;;;;;;5073126;28;20025;-50
2022/11/08 04:34:01;;;;;;;13.02;4.65;;;1.80;99.90;;;;;;5073260;28;20494;-49
2022/11/08 04:36:27;;;;;;;7.85;4.65;;;1.80;99.90;;;;;;5072951;28;20099;-50
2022/11/08 04:38:53;;;;;;;8.23;4.15;;;1.80;99.90;;;;;;5073045;28;20024;-51
2022/11/08 04:41:21;;;;;;;6.72;4.43;;;1.80;99.90;;;;;;5073020;28;20028;-50
2022/11/08 04:43:47;;;;;;;4.35;3.90;;;1.80;99.90;;;;;;5071698;28;20022;-51
2022/11/08 04:46:18;;;;;;;5.30;3.90;;;1.80;99.90;;;;;;5072652;28;20028;-51
2022/11/08 04:48:45;;;;;;;7.57;3.42;;;1.80;99.90;;;;;;5072610;28;20020;-51
2022/11/08 04:51:30;;;;;;;6.53;3.10;;;1.80;99.90;;;;;;5072857;28;20073;-51
2022/11/08 04:53:58;;;;;;;6.53;3.85;;;1.70;99.90;;;;;;5072775;28;20028;-53
2022/11/08 04:56:25;;;;;;;4.10;3.13;;;1.70;99.90;;;;;;5072685;28;20023;-50
2022/11/08 04:58:53;;;;;;;14.65;4.60;;;1.70;99.90;;;;;;5071429;28;20629;-50
2022/11/08 05:01:24;;;;;;;6.50;3.83;;;1.70;99.90;;;;;;5072652;28;20090;-50
2022/11/08 05:03:52;;;;;;;5.68;3.03;;;1.70;99.90;;;;;;5072558;28;20028;-51
2022/11/08 05:06:20;;;;;;;5.20;3.40;;;1.70;99.90;;;;;;5072502;28;20025;-49
2022/11/08 05:08:46;;;;;;;5.47;3.30;;;1.70;99.90;;;;;;5072326;28;20048;-50
2022/11/08 05:11:14;;;;;;;10.57;3.67;;;1.70;99.90;;;;;;5072430;28;20340;-51
2022/11/08 05:13:40;;;;;;;3.47;3.03;;;1.70;99.90;;;;;;5072304;28;20036;-49
2022/11/08 05:16:12;;;;;;;7.57;3.55;;;1.70;99.90;;;;;;5072330;28;20028;-51
2022/11/08 05:18:38;;;;;;;6.65;3.78;;;1.70;99.90;;;;;;5072087;28;20562;-49
2022/11/08 05:23:49;;;;;;;4.20;3.28;;;1.60;99.90;;;;;;5072199;28;20525;-51
2022/11/08 05:26:16;;;;;;;4.55;3.17;;;1.60;99.90;;;;;;5072213;28;20025;-50
2022/11/08 05:28:42;;;;;;;11.15;3.50;;;1.70;99.90;;;;;;5071630;28;20028;-49
2022/11/08 05:31:08;;;;;;;4.22;3.78;;;1.60;99.90;;;;;;5071075;28;20025;-50
2022/11/08 05:33:34;;;;;;;6.93;3.17;;;1.60;99.90;;;;;;5071113;28;20361;-49
2022/11/08 05:36:05;;;;;;;2.97;2.75;;;1.60;99.90;;;;;;5070455;28;20049;-49
2022/11/08 05:38:31;;;;;;;8.35;3.65;;;1.60;99.90;;;;;;5070835;28;20434;-49
2022/11/08 05:41:11;;;;;;;6.88;4.10;;;1.60;99.90;;;;;;5070932;28;20024;-50
2022/11/08 05:43:37;;;;;;;4.57;3.85;;;1.60;99.90;;;;;;5071410;28;20017;-49
2022/11/08 05:46:02;;;;;;;6.07;4.22;;;1.60;99.90;;;;;;5071777;28;20055;-49
2022/11/08 05:48:28;;;;;;;5.00;4.00;;;1.60;99.90;;;;;;5071783;28;20036;-50
2022/11/08 05:50:54;;;;;;;6.85;4.10;;;1.50;99.90;;;;;;5071952;28;20020;-50
2022/11/08 05:53:20;;;;;;;11.00;4.35;;;1.50;99.90;;;;;;5071740;28;20048;-51
2022/11/08 05:55:46;;;;;;;5.10;4.20;;;1.50;99.90;;;;;;5071679;28;20021;-49
2022/11/08 05:58:12;;;;;;;7.05;4.65;;;1.60;99.90;;;;;;5071386;28;20483;-50
2022/11/08 06:00:37;;;;;;;5.65;4.32;;;1.60;99.90;;;;;;5070604;28;20064;-50
2022/11/08 06:03:04;;;;;;;5.57;4.25;;;1.60;99.90;;;;;;5071604;28;20364;-50
2022/11/08 06:05:31;;;;;;;13.18;6.82;;;1.60;99.90;;;;;;5071537;28;20025;-50
2022/11/08 06:07:56;;;;;;;11.30;4.25;;;1.50;99.90;;;;;;5071381;28;20044;-51
2022/11/08 06:10:22;;;;;;;8.75;5.78;;;1.50;99.90;;;;;;5071382;28;20068;-49
2022/11/08 06:12:48;;;;;;;6.72;4.00;;;1.50;99.90;;;;;;5071424;28;20028;-49
2022/11/08 06:15:14;;;;;;;5.10;4.28;;;1.60;99.90;;;;;;5071519;28;20056;-50
2022/11/08 06:17:39;;;;;;;7.25;3.88;;;1.60;99.90;;;;;;5071387;28;20052;-49
2022/11/08 06:20:06;;;;;;;6.18;3.95;;;1.60;99.90;;;;;;5070690;28;20468;-49
2022/11/08 06:22:33;;;;;;;8.13;4.22;;;1.60;99.90;;;;;;5070894;28;20021;-50
2022/11/08 06:24:59;;;;;;;15.13;6.20;;;1.60;99.90;;;;;;5071114;28;20021;-50
2022/11/08 06:27:25;;;;;;;8.48;4.35;;;1.60;99.90;;;;;;5070925;28;20107;-50
2022/11/08 06:29:50;;;;;;;7.53;4.55;;;1.70;99.90;;;;;;5071076;28;20040;-51
2022/11/08 06:32:16;;;;;;;4.90;3.90;;;1.70;99.90;;;;;;5071165;28;20024;-52
2022/11/08 06:34:44;;;;;;;8.52;4.28;;;1.70;99.90;;;;;;5070772;28;20040;-49
2022/11/08 06:37:11;;;;;;;5.60;3.90;;;1.70;99.90;;;;;;5071333;28;20131;-51
2022/11/08 06:39:36;;;;;;;4.57;3.80;;;1.80;99.90;;;;;;5071059;28;20021;-50
2022/11/08 06:42:02;;;;;;;11.65;4.38;;;1.80;99.90;;;;;;5071064;28;20031;-50
2022/11/08 06:44:28;;;;;;;15.00;7.18;;;1.80;99.90;;;;;;5071124;28;20028;-49
2022/11/08 06:46:54;;;;;;;6.13;4.80;;;1.80;99.90;;;;;;5071091;28;20490;-69
2022/11/08 06:49:22;;;;;;;9.10;5.00;;;1.90;99.90;;;;;;5069676;28;20067;-51
2022/11/08 06:51:48;;;;;;;7.05;5.68;;;1.90;99.90;;;;;;5071101;28;20032;-51
2022/11/08 06:54:13;;;;;;;10.63;4.95;;;1.90;99.90;;;;;;5069757;28;20020;-50
2022/11/08 06:56:39;;;;;;;19.25;9.15;;;1.90;99.90;;;;;;5069482;28;20380;-49
2022/11/08 06:59:04;;;;;;;35.97;18.00;;;1.80;99.90;;;;;;5069637;28;20024;-49
2022/11/08 07:01:30;;;;;;;37.53;17.13;;;1.90;99.90;;;;;;5070926;28;20017;-49
2022/11/08 07:03:56;;;;;;;25.60;15.98;;;1.90;99.90;;;;;;5071075;28;20021;-50
2022/11/08 07:06:24;;;;;;;47.28;25.25;;;2.00;99.90;;;;;;5071028;28;20025;-51
2022/11/08 07:08:50;;;;;;;39.75;20.45;;;2.10;99.90;;;;;;5070835;28;20044;-50
2022/11/08 07:11:16;;;;;;;43.97;23.52;;;2.20;99.90;;;;;;5072208;28;20074;-50
2022/11/08 07:13:41;;;;;;;50.45;27.10;;;2.30;99.90;;;;;;5074589;28;20033;-50
2022/11/08 07:16:08;;;;;;;50.20;29.13;;;2.40;99.90;;;;;;5074616;28;20027;-49
2022/11/08 07:18:34;;;;;;;59.58;33.45;;;2.50;99.90;;;;;;5073094;28;20074;-50
2022/11/08 07:21:01;;;;;;;63.63;33.67;;;2.50;99.90;;;;;;5073608;28;20028;-49
2022/11/08 07:23:27;;;;;;;63.95;32.80;;;2.70;99.90;;;;;;5073180;28;20468;-50
2022/11/08 07:25:53;;;;;;;60.35;31.38;;;2.80;99.90;;;;;;5073116;28;20443;-49
2022/11/08 07:28:19;;;;;;;51.20;28.00;;;2.80;99.90;;;;;;5073015;28;20112;-49
2022/11/08 07:30:46;;;;;;;58.72;29.88;;;2.90;99.90;;;;;;5071773;28;20488;-50
2022/11/08 07:33:12;;;;;;;52.40;29.63;;;3.00;99.90;;;;;;5071760;28;20048;-50
2022/11/08 07:35:38;;;;;;;37.30;20.80;;;3.10;99.90;;;;;;5072924;28;20430;-50
2022/11/08 07:38:04;;;;;;;36.55;23.10;;;3.20;99.90;;;;;;5072945;28;20075;-49
2022/11/08 07:40:29;;;;;;;28.02;16.63;;;3.50;99.90;;;;;;5072720;28;20271;-49
2022/11/08 07:42:58;;;;;;;25.63;18.42;;;3.60;99.90;;;;;;5072904;28;20021;-49
2022/11/08 07:45:25;;;;;;;15.82;12.73;;;3.80;99.90;;;;;;5072706;28;20012;-49
2022/11/08 07:48:11;;;;;;;10.32;8.15;;;3.90;99.90;;;;;;5071551;28;20016;-50
2022/11/08 07:50:38;;;;;;;8.38;5.22;;;4.10;99.90;;;;;;5072523;28;20091;-48
2022/11/08 07:53:04;;;;;;;12.43;8.27;;;4.20;99.90;;;;;;5071400;28;20029;-49
2022/11/08 07:55:29;;;;;;;15.80;10.52;;;4.30;99.90;;;;;;5072629;28;20013;-51
2022/11/08 07:58:01;;;;;;;12.13;9.20;;;4.40;99.90;;;;;;5072564;28;20099;-49
2022/11/08 08:00:28;;;;;;;18.33;10.88;;;4.40;99.90;;;;;;5071004;28;20058;-51
2022/11/08 08:03:01;;;;;;;15.05;10.70;;;4.60;99.90;;;;;;5072794;28;20145;-49
2022/11/08 08:05:28;;;;;;;10.50;8.38;;;4.70;99.90;;;;;;5072269;28;20032;-50
2022/11/08 08:07:58;;;;;;;5.65;4.60;;;4.90;99.90;;;;;;5071087;28;20024;-49
2022/11/08 08:10:26;;;;;;;6.72;4.35;;;5.00;99.90;;;;;;5072254;28;20040;-49
2022/11/08 08:12:51;;;;;;;8.15;4.35;;;5.10;99.90;;;;;;5072301;28;20051;-50
2022/11/08 08:15:17;;;;;;;8.57;4.85;;;5.10;99.90;;;;;;5072318;28;20059;-51
2022/11/08 08:17:43;;;;;;;7.00;6.05;;;5.10;99.90;;;;;;5072110;28;20047;-49
2022/11/08 08:20:09;;;;;;;9.32;5.75;;;5.20;99.90;;;;;;5072151;28;20028;-49
2022/11/08 08:22:35;;;;;;;7.32;5.32;;;5.40;99.90;;;;;;5071569;28;20028;-51
2022/11/08 08:25:00;;;;;;;8.43;4.95;;;5.60;99.90;;;;;;5072163;28;20380;-49
2022/11/08 08:27:26;;;;;;;7.50;5.78;;;5.80;99.90;;;;;;5071903;28;20121;-50
2022/11/08 08:29:51;;;;;;;8.55;5.38;;;5.90;99.90;;;;;;5071976;28;20161;-50
2022/11/08 08:32:17;;;;;;;8.30;6.05;;;6.10;99.90;;;;;;5071893;28;20379;-49
2022/11/08 08:34:43;;;;;;;11.30;5.25;;;6.20;99.90;;;;;;5071807;28;20043;-49
2022/11/08 08:37:09;;;;;;;9.93;7.53;;;6.40;99.90;;;;;;5072125;28;20502;-50
2022/11/08 08:39:35;;;;;;;8.38;7.25;;;6.60;99.90;;;;;;5071715;28;20089;-50
2022/11/08 08:42:01;;;;;;;8.88;4.93;;;6.90;99.90;;;;;;5071956;28;20056;-49
2022/11/08 08:44:26;;;;;;;9.73;3.97;;;7.00;99.90;;;;;;5071900;28;20101;-50
2022/11/08 08:46:54;;;;;;;4.10;3.65;;;7.20;99.90;;;;;;5071701;28;20025;-50
2022/11/08 08:49:20;;;;;;;4.80;3.95;;;7.30;99.90;;;;;;5071693;28;20503;-49
2022/11/08 08:51:46;;;;;;;4.03;3.65;;;7.50;99.90;;;;;;5071421;28;20031;-49
2022/11/08 08:54:13;;;;;;;5.88;4.18;;;7.70;99.90;;;;;;5071553;28;20115;-50
2022/11/08 08:56:39;;;;;;;10.27;4.85;;;7.90;99.90;;;;;;5071441;28;20036;-50
2022/11/08 08:59:05;;;;;;;7.35;4.43;;;8.10;99.90;;;;;;5071536;28;20074;-49
2022/11/08 09:01:35;;;;;;;7.93;5.82;;;8.40;99.90;;;;;;5071216;28;20561;-51
2022/11/08 09:04:02;;;;;;;6.20;4.18;;;8.70;99.90;;;;;;5070127;28;20036;-51
2022/11/08 09:06:28;;;;;;;5.60;4.13;;;9.00;99.90;;;;;;5071186;28;20393;-50
2022/11/08 09:08:53;;;;;;;7.97;4.90;;;9.30;99.90;;;;;;5071006;28;20045;-50
2022/11/08 09:11:19;;;;;;;6.32;4.88;;;9.50;99.90;;;;;;5071158;28;20464;-49
2022/11/08 09:13:45;;;;;;;7.43;4.32;;;9.80;99.90;;;;;;5069611;28;20031;-49
2022/11/08 09:16:12;;;;;;;9.90;3.85;;;10.00;99.90;;;;;;5071069;28;20330;-49
2022/11/08 09:18:38;;;;;;;6.45;5.25;;;10.20;99.90;;;;;;5071255;28;20028;-51
2022/11/08 09:21:04;;;;;;;10.70;6.95;;;10.30;99.90;;;;;;5071176;28;20411;-50
2022/11/08 09:23:30;;;;;;;7.18;5.35;;;10.50;99.90;;;;;;5070801;28;20045;-49
2022/11/08 09:26:01;;;;;;;12.02;5.35;;;10.60;99.90;;;;;;5070956;28;20031;-49
2022/11/08 09:28:29;;;;;;;5.88;3.00;;;10.70;99.90;;;;;;5070798;28;20017;-49
2022/11/08 09:30:57;;;;;;;4.32;3.88;;;11.00;99.90;;;;;;5070790;28;20021;-50
2022/11/08 09:33:24;;;;;;;9.30;3.03;;;11.40;99.90;;;;;;5070727;28;20447;-49
2022/11/08 09:35:52;;;;;;;12.57;5.43;;;12.40;99.90;;;;;;5068482;28;20036;-52
2022/11/08 09:38:18;;;;;;;8.35;4.45;;;13.60;99.90;;;;;;5070720;28;20383;-50
2022/11/08 09:41:08;;;;;;;5.65;2.40;;;14.80;98.50;;;;;;5070543;28;20058;-50
2022/11/08 09:43:57;;;;;;;5.85;3.15;;;15.20;95.70;;;;;;5070523;28;20025;-50
2022/11/08 09:46:42;;;;;;;7.38;3.92;;;16.10;94.40;;;;;;5070485;28;20048;-50
2022/11/08 09:49:25;;;;;;;8.38;2.42;;;16.70;91.80;;;;;;5070569;28;20031;-52
2022/11/08 09:51:51;;;;;;;5.20;3.35;;;17.90;88.10;;;;;;5070563;28;20127;-50
2022/11/08 09:54:22;;;;;;;10.43;4.75;;;18.10;83.90;;;;;;5070605;28;20025;-50
2022/11/08 09:56:51;;;;;;;25.55;8.02;;;19.00;81.80;;;;;;5070527;28;20028;-50
2022/11/08 09:59:49;;;;;;;14.77;3.55;;;19.90;79.10;;;;;;5070361;28;20112;-50
2022/11/08 10:02:20;;;;;;;6.13;1.70;;;20.10;71.70;;;;;;5070320;28;20013;-50
2022/11/08 10:05:01;;;;;;;9.27;3.63;;;20.00;70.50;;;;;;5070310;28;20035;-50
2022/11/08 10:07:52;;;;;;;2.40;1.85;;;19.90;70.70;;;;;;5070320;28;20025;-50
2022/11/08 10:10:38;;;;;;;6.80;1.80;;;20.50;68.00;;;;;;5068942;28;20047;-51
2022/11/08 10:13:19;;;;;;;9.80;1.60;;;20.90;65.30;;;;;;5069011;28;20441;-51
2022/11/08 10:16:07;;;;;;;2.67;1.80;;;20.80;64.50;;;;;;5070114;28;20541;-50
2022/11/08 10:18:53;;;;;;;3.22;1.58;;;21.40;62.30;;;;;;5070129;28;20491;-52
2022/11/08 10:21:39;;;;;;;3.70;1.83;;;21.60;63.40;;;;;;5070173;28;20052;-52
2022/11/08 10:24:52;;;;;;;2.13;1.92;;;21.50;64.70;;;;;;5070040;28;20051;-49
2022/11/08 10:27:35;;;;;;;3.38;1.65;;;22.80;63.80;;;;;;5047536;28;20475;-51
2022/11/08 10:30:06;;;;;;;3.13;1.60;;;23.40;60.50;;;;;;5047466;28;20033;-50
2022/11/08 10:32:33;;;;;;;7.38;2.25;;;23.20;59.60;;;;;;5062384;28;20032;-50
2022/11/08 10:35:24;;;;;;;7.78;1.83;;;22.90;60.40;;;;;;5070082;28;20020;-51
2022/11/08 10:37:51;;;;;;;2.97;1.98;;;23.40;58.60;;;;;;5070004;28;20028;-51
2022/11/08 10:40:30;;;;;;;2.63;2.28;;;23.20;56.70;;;;;;5069893;28;20043;-51
2022/11/08 10:43:10;;;;;;;5.63;1.55;;;23.10;58.30;;;;;;5070370;28;20027;-50
2022/11/08 10:45:36;;;;;;;5.80;2.40;;;23.30;56.50;;;;;;5070093;28;20025;-50
2022/11/08 10:48:03;;;;;;;6.05;1.60;;;23.50;55.50;;;;;;5073833;28;20021;-50
2022/11/08 10:50:55;;;;;;;4.13;2.75;;;23.20;55.20;;;;;;5079356;28;20494;-50
2022/11/08 10:53:30;;;;;;;2.70;1.58;;;23.20;54.40;;;;;;5087293;28;20082;-51
2022/11/08 10:56:04;;;;;;;5.88;2.15;;;23.30;54.30;;;;;;5093944;28;20489;-50
2022/11/08 10:58:30;;;;;;;6.57;2.53;;;23.30;56.20;;;;;;5092906;28;20024;-50
2022/11/08 11:01:15;;;;;;;7.45;2.92;;;23.30;53.50;;;;;;5094386;28;20088;-49
2022/11/08 11:03:41;;;;;;;8.65;3.40;;;23.80;53.00;;;;;;5093628;28;20027;-49
2022/11/08 11:06:20;;;;;;;2.47;1.83;;;23.90;52.90;;;;;;5093963;28;20047;-49
2022/11/08 11:09:19;;;;;;;1.92;1.73;;;24.00;50.30;;;;;;5093648;28;20169;-49
2022/11/08 11:11:54;;;;;;;7.55;2.30;;;24.20;50.70;;;;;;5093717;28;20020;-50
2022/11/08 11:14:22;;;;;;;2.83;1.85;;;24.20;51.70;;;;;;5093838;28;20027;-49
2022/11/08 11:17:06;;;;;;;2.40;1.42;;;23.20;51.30;;;;;;5093688;28;20024;-53
2022/11/08 11:19:33;;;;;;;3.88;2.25;;;22.60;52.50;;;;;;5093461;28;20032;-48
2022/11/08 11:22:07;;;;;;;8.52;2.75;;;22.00;54.50;;;;;;5093586;28;20367;-48
2022/11/08 11:24:46;;;;;;;6.32;2.30;;;21.40;55.70;;;;;;5093478;28;20028;-50
2022/11/08 11:27:24;;;;;;;4.85;2.95;;;20.50;57.40;;;;;;5093399;28;20065;-49
2022/11/08 11:30:19;;;;;;;2.63;2.03;;;19.70;59.80;;;;;;5093258;28;20026;-50
2022/11/08 11:32:58;;;;;;;3.80;3.33;;;20.30;61.80;;;;;;5093190;28;20024;-51
2022/11/08 11:35:27;;;;;;;7.65;2.65;;;21.20;60.50;;;;;;5093054;28;20020;-50
2022/11/08 11:37:57;;;;;;;2.70;2.42;;;21.40;58.80;;;;;;5093224;28;20020;-49
2022/11/08 11:40:34;;;;;;;3.75;2.55;;;21.50;58.70;;;;;;5093127;28;20052;-50
2022/11/08 11:43:18;;;;;;;2.00;1.85;;;21.90;57.50;;;;;;5093243;28;20391;-50
2022/11/08 11:46:18;;;;;;;3.67;2.30;;;22.60;56.10;;;;;;5093076;28;20020;-50
2022/11/08 11:48:57;;;;;;;4.05;2.53;;;22.40;56.80;;;;;;5092837;28;20052;-50
2022/11/08 11:51:27;;;;;;;8.48;3.08;;;22.00;56.10;;;;;;5092961;28;20051;-50
2022/11/08 11:53:53;;;;;;;6.22;2.30;;;22.10;58.20;;;;;;5093064;28;20486;-50
2022/11/08 11:56:37;;;;;;;4.60;2.50;;;22.30;58.80;;;;;;5093378;28;20028;-50
2022/11/08 11:59:21;;;;;;;3.70;2.42;;;21.60;56.50;;;;;;5090619;28;20024;-50
2022/11/08 12:02:17;;;;;;;6.18;3.47;;;21.20;58.50;;;;;;5092985;28;20032;-50
2022/11/08 12:04:45;;;;;;;10.18;6.22;;;19.50;62.10;;;;;;5092728;28;20426;-50
2022/11/08 12:07:25;;;;;;;7.68;3.03;;;18.50;64.00;;;;;;5092783;28;20395;-49
2022/11/08 12:10:14;;;;;;;5.78;3.10;;;17.70;66.50;;;;;;5092450;28;20106;-50
2022/11/08 12:13:04;;;;;;;5.05;3.00;;;17.20;69.30;;;;;;5092477;28;20016;-49
2022/11/08 12:15:33;;;;;;;9.75;3.40;;;16.40;71.30;;;;;;5092362;28;20019;-49
2022/11/08 12:18:19;;;;;;;3.35;2.72;;;16.40;73.10;;;;;;5092597;28;20495;-49
2022/11/08 12:20:50;;;;;;;3.85;3.15;;;17.20;72.90;;;;;;5092372;28;20364;-49
2022/11/08 12:23:46;;;;;;;7.13;2.83;;;18.60;70.20;;;;;;5092597;28;20387;-50
2022/11/08 12:26:40;;;;;;;2.92;2.17;;;20.00;64.90;;;;;;5091368;28;20035;-50
2022/11/08 12:29:17;;;;;;;9.55;2.60;;;22.30;60.80;;;;;;5092623;28;20055;-50
2022/11/08 12:32:10;;;;;;;2.95;1.67;;;23.10;57.70;;;;;;5092149;28;20031;-50
2022/11/08 12:34:55;;;;;;;2.60;1.63;;;23.30;56.30;;;;;;5092196;28;20012;-49
2022/11/08 12:37:35;;;;;;;4.45;2.00;;;23.30;57.80;;;;;;5092158;28;20039;-51
2022/11/08 12:40:19;;;;;;;3.03;1.80;;;23.50;55.80;;;;;;5092090;28;20076;-51
2022/11/08 12:43:07;;;;;;;3.30;2.35;;;23.50;55.80;;;;;;5092531;28;20036;-51
2022/11/08 12:45:50;;;;;;;5.25;2.35;;;22.60;55.10;;;;;;5092889;28;20061;-50
2022/11/08 12:48:15;;;;;;;3.45;2.67;;;21.50;57.60;;;;;;5093236;28;20467;-52
2022/11/08 12:50:50;;;;;;;2.72;2.00;;;19.90;60.80;;;;;;5071510;28;20047;-52
2022/11/08 12:53:25;;;;;;;3.67;2.45;;;19.10;62.80;;;;;;5035736;28;20059;-51
2022/11/08 12:55:54;;;;;;;4.38;2.38;;;19.00;63.70;;;;;;5052865;28;20395;-50
2022/11/08 12:58:43;;;;;;;10.18;3.13;;;18.60;64.50;;;;;;5052781;28;20025;-50
2022/11/08 13:01:14;;;;;;;6.82;2.67;;;18.20;66.10;;;;;;5052205;28;20108;-51
2022/11/08 13:03:44;;;;;;;5.03;2.63;;;18.50;65.10;;;;;;5051763;28;20021;-50
2022/11/08 13:06:52;;;;;;;3.53;2.85;;;19.20;64.20;;;;;;5052006;28;20071;-54
2022/11/08 13:09:36;;;;;;;3.65;2.13;;;20.50;61.90;;;;;;5051820;28;20119;-51
2022/11/08 13:12:12;;;;;;;;;;;22.00;58.00;;;;;;5052934;28;20025;-52
2022/11/08 13:14:38;;;;;;;5.38;2.85;;;22.80;57.40;;;;;;5052421;28;20014;-51
2022/11/08 13:17:25;;;;;;;2.90;1.92;;;23.90;56.10;;;;;;5052122;28;20024;-52
2022/11/08 13:20:03;;;;;;;6.82;2.00;;;23.80;55.00;;;;;;5052297;28;20025;-52
2022/11/08 13:22:29;;;;;;;5.75;2.38;;;23.50;56.50;;;;;;5052154;28;20036;-52
2022/11/08 13:24:56;;;;;;;5.93;2.25;;;23.40;55.50;;;;;;5052411;28;20036;-51
2022/11/08 13:27:35;;;;;;;2.65;1.80;;;23.60;55.80;;;;;;5052144;28;20124;-50